Time;durP1;ratioP1;P1;durP2;ratioP2;P2;SDS_P1;SDS_P2;PMS_P1;PMS_P2;Temp;Humidity;BMP_temperature;BMP_pressure;BME280_temperature;BME280_humidity;BME280_pressure;Samples;Min_cycle;Max_cycle;Signal;HPM_P1;HPM_P2
2021/01/22 00:01:47;;;;;;;1.92;0.40;;;;;;;;;;4971316;28;20049;-80
2021/01/22 00:04:13;;;;;;;5.22;0.45;;;;;;;;;;4965585;28;20074;-79
2021/01/22 00:06:39;;;;;;;1.15;0.32;;;;;;;;;;4970009;28;20126;-79
2021/01/22 00:09:05;;;;;;;4.97;0.45;;;;;;;;;;4972996;28;20054;-79
2021/01/22 00:11:32;;;;;;;2.03;0.40;;;;;;;;;;4972114;28;20041;-79
2021/01/22 00:13:58;;;;;;;1.10;0.38;;;;;;;;;;4973026;28;20031;-79
2021/01/22 00:16:24;;;;;;;1.88;0.75;;;;;;;;;;4983459;28;20038;-79
2021/01/22 00:18:50;;;;;;;5.78;0.57;;;;;;;;;;4971153;28;20237;-79
2021/01/22 00:21:16;;;;;;;2.33;0.43;;;;;;;;;;4981307;28;20034;-79
2021/01/22 00:23:42;;;;;;;1.42;0.35;;;;;;;;;;4971550;28;20053;-79
2021/01/22 00:26:08;;;;;;;2.22;0.28;;;;;;;;;;4967596;28;20568;-79
2021/01/22 00:28:35;;;;;;;0.63;0.28;;;;;;;;;;4986150;28;20369;-79
2021/01/22 00:31:01;;;;;;;5.43;0.50;;;;;;;;;;4969608;28;20026;-79
2021/01/22 00:33:27;;;;;;;3.00;0.30;;;;;;;;;;4971668;28;20485;-78
2021/01/22 00:35:53;;;;;;;2.80;0.30;;;;;;;;;;4967687;28;20023;-78
2021/01/22 00:38:19;;;;;;;5.20;0.45;;;;;;;;;;4972580;28;20022;-78
2021/01/22 00:40:45;;;;;;;4.72;0.38;;;;;;;;;;4960600;28;20050;-78
2021/01/22 00:43:11;;;;;;;4.60;0.43;;;;;;;;;;4971785;28;20046;-79
2021/01/22 00:45:37;;;;;;;3.45;0.47;;;;;;;;;;4968659;28;20331;-78
2021/01/22 00:48:04;;;;;;;5.13;0.43;;;;;;;;;;4967629;28;20023;-79
2021/01/22 00:50:30;;;;;;;6.10;0.63;;;;;;;;;;4971286;28;20452;-79
2021/01/22 00:52:56;;;;;;;7.97;0.77;;;;;;;;;;4960815;28;20290;-79
2021/01/22 00:55:22;;;;;;;4.63;0.43;;;;;;;;;;4958870;28;20321;-79
2021/01/22 00:57:48;;;;;;;8.80;0.73;;;;;;;;;;4984332;28;20061;-78
2021/01/22 01:00:15;;;;;;;5.07;0.38;;;;;;;;;;4958355;28;20046;-80
2021/01/22 01:02:41;;;;;;;4.72;0.63;;;;;;;;;;4968519;28;20050;-79
2021/01/22 01:05:07;;;;;;;4.82;0.57;;;;;;;;;;4971362;28;20058;-79
2021/01/22 01:07:34;;;;;;;6.30;0.90;;;;;;;;;;4969601;28;20030;-79
2021/01/22 01:10:00;;;;;;;5.60;0.65;;;;;;;;;;4964413;28;20035;-80
2021/01/22 01:12:26;;;;;;;6.50;0.77;;;;;;;;;;4987295;28;20023;-79
2021/01/22 01:14:52;;;;;;;9.38;1.42;;;;;;;;;;4959228;28;20391;-78
2021/01/22 01:17:19;;;;;;;3.47;0.45;;;;;;;;;;4961296;28;20042;-78
2021/01/22 01:19:45;;;;;;;5.43;0.82;;;;;;;;;;4968473;28;20117;-79
2021/01/22 01:22:11;;;;;;;9.15;1.27;;;;;;;;;;4980102;28;20031;-79
2021/01/22 01:24:37;;;;;;;3.53;0.65;;;;;;;;;;4984524;28;20089;-83
2021/01/22 01:27:03;;;;;;;6.38;1.35;;;;;;;;;;4968062;28;20039;-79
2021/01/22 01:29:29;;;;;;;4.85;0.80;;;;;;;;;;4967346;28;20035;-78
2021/01/22 01:31:55;;;;;;;7.03;1.92;;;;;;;;;;4986403;28;20019;-79
2021/01/22 01:34:21;;;;;;;8.95;1.40;;;;;;;;;;4968698;28;20034;-82
2021/01/22 01:36:47;;;;;;;12.73;1.25;;;;;;;;;;4968189;28;20022;-79
2021/01/22 01:39:13;;;;;;;9.57;1.63;;;;;;;;;;4961052;28;20031;-82
2021/01/22 01:41:39;;;;;;;10.68;1.55;;;;;;;;;;4967137;28;20043;-79
2021/01/22 01:44:05;;;;;;;9.90;1.60;;;;;;;;;;4978638;28;20039;-81
2021/01/22 01:46:31;;;;;;;7.45;1.38;;;;;;;;;;4966869;28;20033;-80
2021/01/22 01:48:58;;;;;;;12.82;1.90;;;;;;;;;;4970574;28;20041;-79
2021/01/22 01:51:24;;;;;;;14.32;2.65;;;;;;;;;;4969781;28;20185;-79
2021/01/22 01:53:50;;;;;;;9.48;2.20;;;;;;;;;;4969381;28;20555;-79
2021/01/22 01:56:16;;;;;;;12.32;2.05;;;;;;;;;;4966640;28;20046;-79
2021/01/22 01:58:42;;;;;;;12.38;1.90;;;;;;;;;;4970448;28;20159;-81
2021/01/22 02:01:09;;;;;;;18.98;2.20;;;;;;;;;;4984265;28;20050;-78
2021/01/22 02:03:35;;;;;;;19.85;3.53;;;;;;;;;;4969836;28;20571;-79
2021/01/22 02:06:02;;;;;;;9.77;2.03;;;;;;;;;;4966253;28;20031;-81
2021/01/22 02:08:28;;;;;;;13.73;3.05;;;;;;;;;;4966745;28;20054;-79
2021/01/22 02:10:55;;;;;;;22.55;3.42;;;;;;;;;;4962473;28;20549;-79
2021/01/22 02:13:21;;;;;;;16.50;3.25;;;;;;;;;;4969593;28;20027;-80
2021/01/22 02:15:47;;;;;;;12.05;2.60;;;;;;;;;;4963599;28;20085;-79
2021/01/22 02:18:14;;;;;;;14.45;2.88;;;;;;;;;;4967393;28;20034;-79
2021/01/22 02:20:40;;;;;;;21.50;2.95;;;;;;;;;;4971559;28;20528;-79
2021/01/22 02:23:07;;;;;;;16.35;2.08;;;;;;;;;;4971967;28;20057;-80
2021/01/22 02:25:34;;;;;;;15.10;2.15;;;;;;;;;;4967909;28;20054;-79
2021/01/22 02:28:01;;;;;;;18.05;2.65;;;;;;;;;;4969414;28;20031;-80
2021/01/22 02:30:27;;;;;;;8.52;1.90;;;;;;;;;;4984058;28;20023;-79
2021/01/22 02:32:54;;;;;;;16.88;2.72;;;;;;;;;;4970508;28;20026;-78
2021/01/22 02:35:22;;;;;;;16.20;1.90;;;;;;;;;;4966494;28;20218;-79
2021/01/22 02:37:49;;;;;;;20.88;3.22;;;;;;;;;;4960243;28;20030;-78
2021/01/22 02:40:16;;;;;;;11.95;2.03;;;;;;;;;;4970607;28;20455;-78
2021/01/22 02:42:43;;;;;;;13.55;2.55;;;;;;;;;;4957011;28;20031;-78
2021/01/22 02:45:10;;;;;;;23.00;3.17;;;;;;;;;;4965679;28;20051;-78
2021/01/22 02:47:36;;;;;;;18.50;3.40;;;;;;;;;;4968174;28;20035;-78
2021/01/22 02:50:04;;;;;;;15.98;2.10;;;;;;;;;;4966905;28;20035;-79
2021/01/22 02:52:30;;;;;;;14.38;2.33;;;;;;;;;;4967328;28;20027;-78
2021/01/22 02:54:56;;;;;;;19.50;2.75;;;;;;;;;;4964403;28;20189;-79
2021/01/22 02:57:28;;;;;;;13.70;1.83;;;;;;;;;;4970072;28;20035;-79
2021/01/22 03:00:10;;;;;;;10.93;1.67;;;;;;;;;;4973848;28;20027;-80
2021/01/22 03:02:50;;;;;;;18.35;2.97;;;;;;;;;;4986912;28;20055;-78
2021/01/22 03:05:17;;;;;;;16.17;2.92;;;;;;;;;;4986245;28;20097;-78
2021/01/22 03:07:46;;;;;;;19.98;3.00;;;;;;;;;;4970279;28;20114;-78
2021/01/22 03:10:13;;;;;;;12.93;3.22;;;;;;;;;;4971230;28;20077;-78
2021/01/22 03:12:40;;;;;;;15.18;2.30;;;;;;;;;;4963550;28;20065;-79
2021/01/22 03:15:06;;;;;;;14.88;1.67;;;;;;;;;;4987006;28;20019;-78
2021/01/22 03:17:32;;;;;;;14.27;2.10;;;;;;;;;;4986620;28;20050;-80
2021/01/22 03:19:58;;;;;;;23.15;2.17;;;;;;;;;;4964871;28;20049;-79
2021/01/22 03:22:24;;;;;;;13.18;2.20;;;;;;;;;;4974552;28;20056;-78
2021/01/22 03:24:50;;;;;;;16.73;2.40;;;;;;;;;;4980782;28;20506;-78
2021/01/22 03:27:17;;;;;;;12.77;2.17;;;;;;;;;;4961367;28;20039;-79
2021/01/22 03:29:43;;;;;;;16.63;2.85;;;;;;;;;;4985637;28;20031;-77
2021/01/22 03:32:09;;;;;;;19.20;2.63;;;;;;;;;;4972947;28;20499;-78
2021/01/22 03:34:35;;;;;;;19.08;2.95;;;;;;;;;;4973437;28;20089;-78
2021/01/22 03:37:01;;;;;;;13.38;1.92;;;;;;;;;;4964014;28;20484;-78
2021/01/22 03:39:28;;;;;;;10.50;1.70;;;;;;;;;;4967297;28;20110;-78
2021/01/22 03:41:54;;;;;;;17.30;2.00;;;;;;;;;;4972926;28;20027;-78
2021/01/22 03:44:20;;;;;;;12.90;2.80;;;;;;;;;;4970220;28;20098;-78
2021/01/22 03:46:47;;;;;;;10.68;1.83;;;;;;;;;;4985311;28;20058;-77
2021/01/22 03:49:13;;;;;;;7.57;1.90;;;;;;;;;;4973189;28;20023;-78
2021/01/22 03:51:39;;;;;;;9.70;1.83;;;;;;;;;;4972738;28;20068;-78
2021/01/22 03:54:06;;;;;;;10.52;1.55;;;;;;;;;;4969348;28;20055;-77
2021/01/22 03:56:32;;;;;;;14.00;2.38;;;;;;;;;;4969593;28;20033;-78
2021/01/22 03:58:59;;;;;;;14.00;2.70;;;;;;;;;;4987847;28;20042;-78
2021/01/22 04:01:28;;;;;;;9.93;2.30;;;;;;;;;;4986971;28;20042;-78
2021/01/22 04:03:54;;;;;;;14.57;2.13;;;;;;;;;;4985074;28;20086;-77
2021/01/22 04:06:20;;;;;;;10.90;1.77;;;;;;;;;;4984572;28;20073;-78
2021/01/22 04:08:46;;;;;;;10.18;2.10;;;;;;;;;;4964973;28;20113;-77
2021/01/22 04:11:12;;;;;;;15.90;2.28;;;;;;;;;;4972933;28;20049;-78
2021/01/22 04:13:38;;;;;;;15.38;2.22;;;;;;;;;;4972479;28;20038;-77
2021/01/22 04:16:05;;;;;;;11.48;2.00;;;;;;;;;;4970119;28;20034;-78
2021/01/22 04:18:31;;;;;;;9.60;1.80;;;;;;;;;;4970730;28;20023;-78
2021/01/22 04:20:57;;;;;;;8.35;1.70;;;;;;;;;;4958515;28;20046;-77
2021/01/22 04:23:23;;;;;;;13.05;2.28;;;;;;;;;;4971942;28;20035;-77
2021/01/22 04:25:49;;;;;;;25.20;3.00;;;;;;;;;;4961796;28;20027;-78
2021/01/22 04:28:15;;;;;;;13.27;2.35;;;;;;;;;;4971021;28;20034;-78
2021/01/22 04:30:42;;;;;;;22.67;3.55;;;;;;;;;;4972777;28;20106;-78
2021/01/22 04:33:08;;;;;;;13.40;1.70;;;;;;;;;;4969727;28;20042;-78
2021/01/22 04:35:34;;;;;;;13.10;2.13;;;;;;;;;;4967757;28;20027;-78
2021/01/22 04:38:00;;;;;;;11.35;1.92;;;;;;;;;;4972238;28;20034;-78
2021/01/22 04:40:27;;;;;;;8.55;1.63;;;;;;;;;;4971811;28;20035;-78
2021/01/22 04:42:53;;;;;;;16.02;2.92;;;;;;;;;;4969555;28;20498;-77
2021/01/22 04:45:19;;;;;;;24.23;2.45;;;;;;;;;;4964753;28;20065;-77
2021/01/22 04:47:45;;;;;;;16.15;3.95;;;;;;;;;;4969711;28;20082;-77
2021/01/22 04:50:12;;;;;;;16.20;3.03;;;;;;;;;;4971672;28;20496;-77
2021/01/22 04:52:38;;;;;;;11.73;2.00;;;;;;;;;;4969301;28;20019;-77
2021/01/22 04:55:08;;;;;;;15.77;2.42;;;;;;;;;;4967047;28;20019;-77
2021/01/22 04:57:38;;;;;;;10.98;2.50;;;;;;;;;;4970519;28;20027;-77
2021/01/22 05:00:04;;;;;;;17.55;2.83;;;;;;;;;;4966385;28;20054;-77
2021/01/22 05:02:31;;;;;;;16.70;2.83;;;;;;;;;;4978519;28;20097;-77
2021/01/22 05:04:57;;;;;;;17.60;2.35;;;;;;;;;;4970813;28;20034;-78
2021/01/22 05:07:24;;;;;;;12.60;2.30;;;;;;;;;;4967932;28;20027;-77
2021/01/22 05:09:50;;;;;;;12.13;2.40;;;;;;;;;;4971356;28;21283;-77
2021/01/22 05:12:16;;;;;;;16.00;2.45;;;;;;;;;;4968024;28;20110;-77
2021/01/22 05:14:42;;;;;;;13.05;2.10;;;;;;;;;;4971192;28;20023;-77
2021/01/22 05:17:10;;;;;;;13.07;2.10;;;;;;;;;;4969044;28;20035;-77
2021/01/22 05:19:37;;;;;;;9.60;1.90;;;;;;;;;;4971770;28;20034;-76
2021/01/22 05:22:03;;;;;;;11.00;1.50;;;;;;;;;;4979775;28;20035;-77
2021/01/22 05:24:30;;;;;;;16.73;2.38;;;;;;;;;;4970616;28;20727;-77
2021/01/22 05:27:05;;;;;;;18.73;2.08;;;;;;;;;;4968955;28;20424;-77
2021/01/22 05:29:32;;;;;;;25.88;3.13;;;;;;;;;;4970614;28;20488;-76
2021/01/22 05:31:58;;;;;;;11.48;2.20;;;;;;;;;;4985138;28;20027;-76
2021/01/22 05:34:43;;;;;;;12.50;2.17;;;;;;;;;;4969226;28;20439;-77
2021/01/22 05:37:09;;;;;;;15.13;2.53;;;;;;;;;;4956648;28;20038;-77
2021/01/22 05:39:36;;;;;;;16.08;1.92;;;;;;;;;;4967955;28;20031;-76
2021/01/22 05:42:02;;;;;;;9.90;2.33;;;;;;;;;;4967614;28;20126;-77
2021/01/22 05:44:28;;;;;;;13.73;1.85;;;;;;;;;;4969604;28;20038;-77
2021/01/22 05:47:20;;;;;;;11.40;2.05;;;;;;;;;;4969715;28;20109;-77
2021/01/22 05:49:46;;;;;;;;;;;;;;;;;;4964029;28;20043;-77
2021/01/22 05:52:20;;;;;;;18.63;2.47;;;;;;;;;;4971947;28;20004;-77
2021/01/22 05:54:46;;;;;;;20.95;3.00;;;;;;;;;;4968753;28;20034;-77
2021/01/22 05:57:12;;;;;;;14.60;3.17;;;;;;;;;;4961161;28;20026;-76
2021/01/22 05:59:38;;;;;;;17.48;2.40;;;;;;;;;;4971536;28;20038;-77
2021/01/22 06:02:23;;;;;;;10.52;2.05;;;;;;;;;;4969075;28;20047;-77
2021/01/22 06:05:06;;;;;;;11.15;1.50;;;;;;;;;;4968549;28;20046;-76
2021/01/22 06:07:32;;;;;;;14.85;1.85;;;;;;;;;;4968282;28;20046;-76
2021/01/22 06:09:58;;;;;;;14.32;2.85;;;;;;;;;;4969550;28;20027;-77
2021/01/22 06:12:24;;;;;;;21.23;3.20;;;;;;;;;;4969103;28;20582;-77
2021/01/22 06:14:50;;;;;;;12.30;2.38;;;;;;;;;;4969910;28;20026;-76
2021/01/22 06:17:17;;;;;;;20.58;3.75;;;;;;;;;;4978351;28;20031;-77
2021/01/22 06:19:43;;;;;;;19.50;2.65;;;;;;;;;;4973293;28;20517;-77
2021/01/22 06:22:18;;;;;;;20.33;2.60;;;;;;;;;;4973190;28;20027;-76
2021/01/22 06:24:45;;;;;;;15.65;2.47;;;;;;;;;;4969755;28;20034;-77
2021/01/22 06:27:11;;;;;;;19.98;2.70;;;;;;;;;;4966334;28;20412;-77
2021/01/22 06:29:37;;;;;;;16.60;2.35;;;;;;;;;;4966320;28;20507;-76
2021/01/22 06:32:04;;;;;;;13.65;2.70;;;;;;;;;;4974267;28;20054;-76
2021/01/22 06:34:31;;;;;;;24.55;3.63;;;;;;;;;;4976817;28;20022;-77
2021/01/22 06:36:58;;;;;;;13.18;2.35;;;;;;;;;;4971996;28;20110;-77
2021/01/22 06:39:24;;;;;;;19.42;2.55;;;;;;;;;;4966114;28;20037;-77
2021/01/22 06:41:50;;;;;;;20.55;2.50;;;;;;;;;;4983196;28;20038;-77
2021/01/22 06:44:16;;;;;;;17.33;2.78;;;;;;;;;;4988069;28;20046;-78
2021/01/22 06:46:42;;;;;;;26.23;5.38;;;;;;;;;;4995587;28;20022;-77
2021/01/22 06:49:08;;;;;;;17.75;3.03;;;;;;;;;;4985253;28;20034;-77
2021/01/22 06:51:35;;;;;;;13.63;2.25;;;;;;;;;;4983223;28;20483;-78
2021/01/22 06:54:07;;;;;;;9.73;1.85;;;;;;;;;;4971243;28;20026;-77
2021/01/22 06:56:35;;;;;;;15.57;2.42;;;;;;;;;;4979553;28;20110;-77
2021/01/22 06:59:23;;;;;;;17.55;2.15;;;;;;;;;;4969903;28;20037;-78
2021/01/22 07:01:51;;;;;;;9.77;2.10;;;;;;;;;;4973935;28;20062;-77
2021/01/22 07:04:29;;;;;;;18.77;3.00;;;;;;;;;;4972634;28;20041;-77
2021/01/22 07:06:59;;;;;;;23.65;3.15;;;;;;;;;;4972388;28;20026;-78
2021/01/22 07:09:44;;;;;;;17.80;2.53;;;;;;;;;;4974830;28;20158;-77
2021/01/22 07:12:11;;;;;;;8.10;1.75;;;;;;;;;;4970806;28;20034;-77
2021/01/22 07:14:41;;;;;;;20.35;2.55;;;;;;;;;;4980514;28;20476;-77
2021/01/22 07:17:10;;;;;;;14.27;4.13;;;;;;;;;;4978476;28;20046;-78
2021/01/22 07:19:37;;;;;;;15.40;3.00;;;;;;;;;;4981954;28;20122;-76
2021/01/22 07:22:06;;;;;;;19.67;3.28;;;;;;;;;;4975651;28;20035;-78
2021/01/22 07:24:34;;;;;;;16.63;2.88;;;;;;;;;;4975658;28;20065;-77
2021/01/22 07:27:01;;;;;;;18.35;3.05;;;;;;;;;;4971127;28;20054;-76
2021/01/22 07:29:27;;;;;;;11.13;2.58;;;;;;;;;;4984526;28;20027;-76
2021/01/22 07:32:01;;;;;;;21.92;2.95;;;;;;;;;;4977092;28;20109;-76
2021/01/22 07:34:39;;;;;;;21.20;2.67;;;;;;;;;;4983331;28;20050;-76
2021/01/22 07:37:06;;;;;;;17.27;3.08;;;;;;;;;;4971619;28;20430;-76
2021/01/22 07:39:33;;;;;;;22.38;2.92;;;;;;;;;;4978761;28;20027;-76
2021/01/22 07:42:08;;;;;;;13.73;2.17;;;;;;;;;;4970978;28;20042;-76
2021/01/22 07:44:35;;;;;;;17.73;3.00;;;;;;;;;;4970247;28;20038;-75
2021/01/22 07:47:01;;;;;;;17.52;4.38;;;;;;;;;;4969353;28;20551;-76
2021/01/22 07:49:27;;;;;;;14.82;2.55;;;;;;;;;;4969973;28;20024;-76
2021/01/22 07:51:53;;;;;;;19.50;2.97;;;;;;;;;;4968201;28;20023;-76
2021/01/22 07:54:19;;;;;;;15.48;2.40;;;;;;;;;;4972230;28;20073;-77
2021/01/22 07:56:47;;;;;;;20.60;3.35;;;;;;;;;;4984669;28;20026;-77
2021/01/22 07:59:14;;;;;;;20.30;3.05;;;;;;;;;;4970388;28;20065;-77
2021/01/22 08:01:40;;;;;;;18.30;2.53;;;;;;;;;;4966745;28;20071;-79
2021/01/22 08:04:06;;;;;;;19.90;3.08;;;;;;;;;;4964976;28;20042;-78
2021/01/22 08:06:44;;;;;;;15.50;2.70;;;;;;;;;;4977248;28;20073;-79
2021/01/22 08:09:12;;;;;;;12.27;2.30;;;;;;;;;;4975609;28;20080;-77
2021/01/22 08:11:38;;;;;;;21.27;3.88;;;;;;;;;;4974590;28;20034;-79
2021/01/22 08:14:04;;;;;;;12.55;2.42;;;;;;;;;;4981363;28;20033;-78
2021/01/22 08:16:31;;;;;;;10.40;2.40;;;;;;;;;;4972996;28;20023;-79
2021/01/22 08:18:57;;;;;;;16.33;3.97;;;;;;;;;;4973394;28;20035;-79
2021/01/22 08:21:23;;;;;;;21.58;3.58;;;;;;;;;;4981383;28;20038;-76
2021/01/22 08:23:49;;;;;;;18.88;2.90;;;;;;;;;;4982205;28;20026;-79
2021/01/22 08:26:16;;;;;;;26.85;2.28;;;;;;;;;;4980596;28;20058;-77
2021/01/22 08:28:43;;;;;;;10.18;2.25;;;;;;;;;;4984726;28;20022;-77
2021/01/22 08:31:09;;;;;;;12.75;1.90;;;;;;;;;;4975362;28;20430;-79
2021/01/22 08:33:36;;;;;;;16.35;2.95;;;;;;;;;;4972183;28;20566;-77
2021/01/22 08:36:02;;;;;;;19.65;2.65;;;;;;;;;;4967823;28;20028;-78
2021/01/22 08:38:28;;;;;;;13.18;2.75;;;;;;;;;;4976773;28;20027;-78
2021/01/22 08:40:54;;;;;;;22.45;2.60;;;;;;;;;;4973246;28;20023;-77
2021/01/22 08:43:20;;;;;;;16.98;2.67;;;;;;;;;;4970570;28;20034;-78
2021/01/22 08:46:06;;;;;;;18.30;2.40;;;;;;;;;;4967451;28;20106;-77
2021/01/22 08:48:38;;;;;;;24.65;3.58;;;;;;;;;;4963112;28;20022;-77
2021/01/22 08:51:05;;;;;;;17.05;1.92;;;;;;;;;;4971080;28;20106;-77
2021/01/22 08:53:31;;;;;;;11.00;1.88;;;;;;;;;;4972913;28;20448;-78
2021/01/22 08:56:14;;;;;;;16.70;2.13;;;;;;;;;;4968004;28;20023;-77
2021/01/22 08:58:58;;;;;;;14.52;2.83;;;;;;;;;;4971413;28;20026;-78
2021/01/22 09:01:43;;;;;;;12.57;2.38;;;;;;;;;;4973402;28;20043;-78
2021/01/22 09:04:26;;;;;;;14.25;3.25;;;;;;;;;;4970774;28;20378;-79
2021/01/22 09:06:53;;;;;;;16.33;2.65;;;;;;;;;;4974231;28;20064;-78
2021/01/22 09:09:37;;;;;;;20.33;3.15;;;;;;;;;;4974952;28;20545;-79
2021/01/22 09:12:10;;;;;;;10.20;2.80;;;;;;;;;;4971676;28;20231;-80
2021/01/22 09:14:52;;;;;;;9.20;2.03;;;;;;;;;;4990514;28;20496;-78
2021/01/22 09:17:22;;;;;;;9.65;1.88;;;;;;;;;;4978376;28;20023;-79
2021/01/22 09:19:58;;;;;;;11.48;1.75;;;;;;;;;;4970407;28;20527;-79
2021/01/22 09:22:24;;;;;;;12.82;2.47;;;;;;;;;;4965921;28;20031;-77
2021/01/22 09:24:50;;;;;;;17.02;2.45;;;;;;;;;;4970761;28;20031;-77
2021/01/22 09:27:16;;;;;;;20.25;2.85;;;;;;;;;;4968560;28;20046;-78
2021/01/22 09:29:42;;;;;;;19.88;4.10;;;;;;;;;;4964869;28;20073;-77
2021/01/22 09:32:08;;;;;;;15.43;3.03;;;;;;;;;;4968569;28;20472;-78
2021/01/22 09:34:34;;;;;;;18.58;2.75;;;;;;;;;;4967888;28;20038;-79
2021/01/22 09:37:00;;;;;;;15.07;3.08;;;;;;;;;;4959651;28;20031;-77
2021/01/22 09:39:27;;;;;;;17.13;2.88;;;;;;;;;;4962157;28;20037;-79
2021/01/22 09:41:53;;;;;;;15.32;2.53;;;;;;;;;;4963314;28;20496;-77
2021/01/22 09:44:19;;;;;;;17.98;2.22;;;;;;;;;;4970834;28;20023;-77
2021/01/22 09:46:45;;;;;;;13.20;2.25;;;;;;;;;;4962021;28;20027;-77
2021/01/22 09:49:12;;;;;;;11.27;2.35;;;;;;;;;;4974200;28;20027;-77
2021/01/22 09:51:38;;;;;;;14.35;2.63;;;;;;;;;;4965705;28;20022;-77
2021/01/22 09:54:04;;;;;;;11.73;1.90;;;;;;;;;;4970070;28;20043;-77
2021/01/22 09:56:30;;;;;;;15.32;2.08;;;;;;;;;;4962762;28;20030;-78
2021/01/22 09:58:56;;;;;;;12.73;2.20;;;;;;;;;;4966847;28;20081;-77
2021/01/22 10:01:22;;;;;;;9.93;1.63;;;;;;;;;;4968904;28;20043;-78
2021/01/22 10:03:48;;;;;;;14.45;1.90;;;;;;;;;;4962743;28;20043;-79
2021/01/22 10:06:15;;;;;;;11.95;2.47;;;;;;;;;;4958191;28;20035;-79
2021/01/22 10:08:41;;;;;;;12.93;2.90;;;;;;;;;;4968144;28;20062;-77
2021/01/22 10:11:07;;;;;;;16.52;2.42;;;;;;;;;;4968968;28;20046;-80
2021/01/22 10:13:33;;;;;;;16.65;2.47;;;;;;;;;;4961260;28;20109;-77
2021/01/22 10:16:01;;;;;;;16.50;2.28;;;;;;;;;;4964775;28;20061;-77
2021/01/22 10:18:27;;;;;;;21.52;4.93;;;;;;;;;;4963276;28;20031;-78
2021/01/22 10:20:53;;;;;;;15.00;2.78;;;;;;;;;;4968384;28;20134;-78
2021/01/22 10:23:20;;;;;;;9.30;1.83;;;;;;;;;;4969448;28;20027;-77
2021/01/22 10:25:46;;;;;;;18.63;3.70;;;;;;;;;;4968444;28;20041;-77
2021/01/22 10:28:12;;;;;;;7.85;1.98;;;;;;;;;;4964181;28;20027;-79
2021/01/22 10:30:38;;;;;;;14.48;1.77;;;;;;;;;;4965863;28;20027;-79
2021/01/22 10:33:04;;;;;;;14.45;2.97;;;;;;;;;;4967426;28;20085;-79
2021/01/22 10:35:30;;;;;;;13.98;2.60;;;;;;;;;;4966874;28;20030;-77
2021/01/22 10:37:56;;;;;;;17.33;2.80;;;;;;;;;;4968122;28;20130;-79
2021/01/22 10:40:22;;;;;;;14.05;2.35;;;;;;;;;;4966456;28;20026;-78
2021/01/22 10:42:48;;;;;;;13.40;2.55;;;;;;;;;;4962404;28;20046;-78
2021/01/22 10:45:14;;;;;;;10.02;2.13;;;;;;;;;;4962642;28;20027;-78
2021/01/22 10:47:40;;;;;;;14.07;2.38;;;;;;;;;;4966564;28;20129;-80
2021/01/22 10:50:07;;;;;;;8.45;2.17;;;;;;;;;;4966416;28;20029;-79
2021/01/22 10:52:33;;;;;;;18.45;2.45;;;;;;;;;;4964705;28;20031;-81
2021/01/22 10:54:59;;;;;;;16.13;2.75;;;;;;;;;;4965940;28;20070;-79
2021/01/22 10:57:25;;;;;;;13.05;2.03;;;;;;;;;;4967086;28;20466;-78
2021/01/22 10:59:51;;;;;;;11.82;2.38;;;;;;;;;;4968612;28;20038;-79
2021/01/22 11:02:17;;;;;;;8.75;2.08;;;;;;;;;;4962184;28;20055;-78
2021/01/22 11:04:43;;;;;;;12.45;2.83;;;;;;;;;;4964462;28;20126;-77
2021/01/22 11:07:09;;;;;;;16.70;2.92;;;;;;;;;;4962327;28;20047;-77
2021/01/22 11:09:35;;;;;;;14.65;2.35;;;;;;;;;;4965755;28;20117;-78
2021/01/22 11:12:05;;;;;;;19.33;2.40;;;;;;;;;;4960874;28;20024;-79
2021/01/22 11:14:31;;;;;;;9.23;2.10;;;;;;;;;;4968494;28;20049;-79
2021/01/22 11:16:57;;;;;;;16.05;2.60;;;;;;;;;;4965799;28;20042;-78
2021/01/22 11:19:23;;;;;;;22.95;2.40;;;;;;;;;;4966538;28;20023;-78
2021/01/22 11:21:49;;;;;;;9.07;1.90;;;;;;;;;;4971692;28;20074;-78
2021/01/22 11:24:15;;;;;;;14.48;2.25;;;;;;;;;;4970496;28;20246;-78
2021/01/22 11:26:41;;;;;;;10.07;2.28;;;;;;;;;;4965046;28;20030;-78
2021/01/22 11:29:07;;;;;;;13.55;1.95;;;;;;;;;;4968296;28;20023;-78
2021/01/22 11:31:33;;;;;;;18.80;2.90;;;;;;;;;;4967862;28;20035;-79
2021/01/22 11:33:59;;;;;;;11.85;1.73;;;;;;;;;;4971628;28;20027;-78
2021/01/22 11:36:25;;;;;;;11.68;1.90;;;;;;;;;;4962801;28;20031;-77
2021/01/22 11:38:51;;;;;;;17.67;2.20;;;;;;;;;;4970748;28;20038;-77
2021/01/22 11:41:17;;;;;;;8.02;1.70;;;;;;;;;;4971287;28;20399;-78
2021/01/22 11:43:44;;;;;;;16.48;2.65;;;;;;;;;;4968875;28;20042;-80
2021/01/22 11:46:10;;;;;;;13.10;2.20;;;;;;;;;;4962060;28;20508;-79
2021/01/22 11:48:36;;;;;;;12.07;1.95;;;;;;;;;;4983792;28;20511;-78
2021/01/22 11:51:03;;;;;;;18.25;2.22;;;;;;;;;;4970761;28;20078;-79
2021/01/22 11:53:29;;;;;;;17.13;2.17;;;;;;;;;;4963951;28;20030;-79
2021/01/22 11:55:55;;;;;;;12.93;2.30;;;;;;;;;;4964759;28;20031;-79
2021/01/22 11:58:21;;;;;;;13.48;2.20;;;;;;;;;;4961901;28;20034;-78
2021/01/22 12:00:47;;;;;;;12.85;2.17;;;;;;;;;;4964952;28;20077;-77
2021/01/22 12:03:14;;;;;;;22.20;2.67;;;;;;;;;;4971962;28;20125;-79
2021/01/22 12:05:40;;;;;;;13.68;1.95;;;;;;;;;;4966212;28;20031;-80
2021/01/22 12:08:06;;;;;;;11.50;2.17;;;;;;;;;;4970608;28;20035;-79
2021/01/22 12:10:32;;;;;;;17.10;2.80;;;;;;;;;;4960353;28;20106;-78
2021/01/22 12:12:58;;;;;;;15.95;2.38;;;;;;;;;;4968282;28;20027;-79
2021/01/22 12:15:24;;;;;;;13.38;2.30;;;;;;;;;;4964801;28;20041;-78
2021/01/22 12:17:50;;;;;;;14.02;1.77;;;;;;;;;;4967650;28;20042;-79
2021/01/22 12:20:17;;;;;;;16.48;2.60;;;;;;;;;;4966969;28;20023;-80
2021/01/22 12:22:44;;;;;;;11.30;1.80;;;;;;;;;;4969592;28;20035;-80
2021/01/22 12:25:10;;;;;;;15.70;2.45;;;;;;;;;;4962919;28;20491;-79
2021/01/22 12:27:36;;;;;;;21.35;1.98;;;;;;;;;;4963852;28;20036;-79
2021/01/22 12:30:03;;;;;;;14.75;3.15;;;;;;;;;;4968208;28;20042;-78
2021/01/22 12:32:29;;;;;;;16.33;2.30;;;;;;;;;;4967100;28;20034;-78
2021/01/22 12:34:56;;;;;;;11.88;2.08;;;;;;;;;;4967891;28;20030;-77
2021/01/22 12:37:22;;;;;;;8.10;1.50;;;;;;;;;;4969112;28;20038;-77
2021/01/22 12:39:48;;;;;;;19.83;2.47;;;;;;;;;;4971044;28;20432;-78
2021/01/22 12:42:14;;;;;;;12.70;2.08;;;;;;;;;;4971967;28;20069;-78
2021/01/22 12:44:40;;;;;;;10.75;2.00;;;;;;;;;;4967224;28;20502;-77
2021/01/22 12:47:06;;;;;;;9.90;2.03;;;;;;;;;;4964568;28;20031;-78
2021/01/22 12:49:32;;;;;;;10.27;1.75;;;;;;;;;;4967647;28;20409;-78
2021/01/22 12:51:58;;;;;;;17.00;2.42;;;;;;;;;;4968172;28;20492;-78
2021/01/22 12:54:24;;;;;;;21.48;4.65;;;;;;;;;;4965806;28;20055;-78
2021/01/22 12:56:50;;;;;;;11.90;2.17;;;;;;;;;;4976410;28;20065;-77
2021/01/22 12:59:16;;;;;;;9.90;1.98;;;;;;;;;;4966093;28;20031;-77
2021/01/22 13:01:42;;;;;;;16.23;2.17;;;;;;;;;;4966935;28;20059;-77
2021/01/22 13:04:08;;;;;;;15.80;3.33;;;;;;;;;;4967571;28;20038;-78
2021/01/22 13:06:34;;;;;;;14.55;2.78;;;;;;;;;;4962412;28;20038;-77
2021/01/22 13:09:01;;;;;;;16.20;2.40;;;;;;;;;;4969927;28;20027;-78
2021/01/22 13:11:27;;;;;;;17.92;2.05;;;;;;;;;;4971998;28;20122;-80
2021/01/22 13:13:53;;;;;;;14.10;2.47;;;;;;;;;;4970109;28;20029;-78
2021/01/22 13:16:20;;;;;;;9.23;1.98;;;;;;;;;;4968387;28;20018;-78
2021/01/22 13:18:46;;;;;;;17.02;2.72;;;;;;;;;;4964697;28;20106;-77
2021/01/22 13:21:12;;;;;;;13.35;2.33;;;;;;;;;;4967989;28;20049;-77
2021/01/22 13:23:41;;;;;;;12.48;2.40;;;;;;;;;;4967643;28;20027;-77
2021/01/22 13:26:07;;;;;;;15.90;2.50;;;;;;;;;;4967364;28;20023;-77
2021/01/22 13:28:33;;;;;;;9.70;2.03;;;;;;;;;;4970112;28;20042;-77
2021/01/22 13:30:59;;;;;;;11.57;2.20;;;;;;;;;;4969109;28;20023;-78
2021/01/22 13:33:25;;;;;;;18.35;2.47;;;;;;;;;;4965769;28;20525;-78
2021/01/22 13:35:51;;;;;;;9.88;2.08;;;;;;;;;;4960103;28;20085;-77
2021/01/22 13:38:17;;;;;;;15.40;2.05;;;;;;;;;;4968613;28;20018;-77
2021/01/22 13:40:44;;;;;;;17.05;2.58;;;;;;;;;;4966000;28;20026;-77
2021/01/22 13:43:10;;;;;;;11.95;2.83;;;;;;;;;;4969797;28;20039;-76
2021/01/22 13:45:36;;;;;;;14.57;2.38;;;;;;;;;;4966863;28;20366;-76
2021/01/22 13:48:03;;;;;;;13.07;1.90;;;;;;;;;;4968756;28;20058;-78
2021/01/22 13:50:29;;;;;;;21.77;3.47;;;;;;;;;;4982903;28;20035;-78
2021/01/22 13:52:55;;;;;;;14.82;3.13;;;;;;;;;;4963634;28;20027;-77
2021/01/22 13:55:21;;;;;;;14.30;3.33;;;;;;;;;;4965605;28;20246;-78
2021/01/22 13:57:47;;;;;;;17.13;2.80;;;;;;;;;;4959315;28;20027;-81
2021/01/22 14:00:13;;;;;;;14.13;2.03;;;;;;;;;;4961874;28;20256;-77
2021/01/22 14:02:39;;;;;;;12.20;1.98;;;;;;;;;;4962879;28;20058;-75
2021/01/22 14:05:06;;;;;;;15.50;2.55;;;;;;;;;;4961437;28;20110;-77
2021/01/22 14:07:32;;;;;;;14.35;2.40;;;;;;;;;;4958995;28;20027;-77
2021/01/22 14:09:58;;;;;;;10.23;1.48;;;;;;;;;;4962477;28;20586;-77
2021/01/22 14:12:24;;;;;;;12.85;2.10;;;;;;;;;;4967478;28;20030;-77
2021/01/22 14:14:50;;;;;;;15.30;2.10;;;;;;;;;;4969021;28;20161;-75
2021/01/22 14:17:16;;;;;;;11.40;2.25;;;;;;;;;;4965809;28;20057;-76
2021/01/22 14:19:42;;;;;;;12.38;2.05;;;;;;;;;;4966573;28;20038;-75
2021/01/22 14:22:08;;;;;;;21.30;2.53;;;;;;;;;;4966434;28;20093;-75
2021/01/22 14:24:34;;;;;;;6.60;1.75;;;;;;;;;;4968072;28;20023;-76
2021/01/22 14:27:00;;;;;;;10.38;2.20;;;;;;;;;;4966333;28;20034;-76
2021/01/22 14:29:27;;;;;;;12.15;2.28;;;;;;;;;;4965580;28;20024;-76
2021/01/22 14:31:53;;;;;;;12.25;2.10;;;;;;;;;;4970754;28;20063;-76
2021/01/22 14:34:19;;;;;;;8.60;1.50;;;;;;;;;;4969328;28;20082;-76